sensor_id;sensor_type;location;lat;lon;timestamp;P1;durP1;ratioP1;P2;durP2;ratioP2
32748;SDS011;19119;52.474;13.710;2022-07-25T00:00:16;3.15;;;2.20;;
32748;SDS011;19119;52.474;13.710;2022-07-25T00:02:41;5.07;;;2.20;;
32748;SDS011;19119;52.474;13.710;2022-07-25T00:05:07;4.82;;;2.45;;
32748;SDS011;19119;52.474;13.710;2022-07-25T00:07:33;3.40;;;2.00;;
32748;SDS011;19119;52.474;13.710;2022-07-25T00:09:58;4.03;;;2.38;;
32748;SDS011;19119;52.474;13.710;2022-07-25T00:12:24;5.38;;;2.13;;
32748;SDS011;19119;52.474;13.710;2022-07-25T00:14:49;2.72;;;2.20;;
32748;SDS011;19119;52.474;13.710;2022-07-25T00:17:15;6.82;;;2.28;;
32748;SDS011;19119;52.474;13.710;2022-07-25T00:19:40;3.47;;;1.90;;
32748;SDS011;19119;52.474;13.710;2022-07-25T00:22:06;3.38;;;2.10;;
32748;SDS011;19119;52.474;13.710;2022-07-25T00:24:31;3.28;;;2.20;;
32748;SDS011;19119;52.474;13.710;2022-07-25T00:26:57;5.10;;;2.20;;
32748;SDS011;19119;52.474;13.710;2022-07-25T00:29:22;2.97;;;2.20;;
32748;SDS011;19119;52.474;13.710;2022-07-25T00:31:48;6.00;;;2.20;;
32748;SDS011;19119;52.474;13.710;2022-07-25T00:34:13;3.28;;;2.10;;
32748;SDS011;19119;52.474;13.710;2022-07-25T00:36:39;3.17;;;2.42;;
32748;SDS011;19119;52.474;13.710;2022-07-25T00:39:04;2.83;;;2.20;;
32748;SDS011;19119;52.474;13.710;2022-07-25T00:41:30;3.03;;;2.10;;
32748;SDS011;19119;52.474;13.710;2022-07-25T00:43:56;2.67;;;1.98;;
32748;SDS011;19119;52.474;13.710;2022-07-25T00:46:21;3.72;;;2.40;;
32748;SDS011;19119;52.474;13.710;2022-07-25T00:48:47;3.72;;;2.10;;
32748;SDS011;19119;52.474;13.710;2022-07-25T00:51:13;4.65;;;2.30;;
32748;SDS011;19119;52.474;13.710;2022-07-25T00:53:40;3.88;;;2.15;;
32748;SDS011;19119;52.474;13.710;2022-07-25T00:56:06;3.55;;;2.08;;
32748;SDS011;19119;52.474;13.710;2022-07-25T00:58:32;3.30;;;1.83;;
32748;SDS011;19119;52.474;13.710;2022-07-25T01:00:58;3.38;;;2.05;;
32748;SDS011;19119;52.474;13.710;2022-07-25T01:03:25;5.55;;;2.30;;
32748;SDS011;19119;52.474;13.710;2022-07-25T01:05:51;2.92;;;2.25;;
32748;SDS011;19119;52.474;13.710;2022-07-25T01:08:17;2.53;;;1.95;;
32748;SDS011;19119;52.474;13.710;2022-07-25T01:10:44;3.42;;;2.05;;
32748;SDS011;19119;52.474;13.710;2022-07-25T01:13:10;3.08;;;2.15;;
32748;SDS011;19119;52.474;13.710;2022-07-25T01:15:36;5.45;;;2.28;;
32748;SDS011;19119;52.474;13.710;2022-07-25T01:18:01;2.60;;;1.80;;
32748;SDS011;19119;52.474;13.710;2022-07-25T01:20:28;4.22;;;2.30;;
32748;SDS011;19119;52.474;13.710;2022-07-25T01:22:56;4.20;;;2.20;;
32748;SDS011;19119;52.474;13.710;2022-07-25T01:25:22;7.00;;;2.30;;
32748;SDS011;19119;52.474;13.710;2022-07-25T01:27:48;3.25;;;2.15;;
32748;SDS011;19119;52.474;13.710;2022-07-25T01:30:14;5.13;;;2.28;;
32748;SDS011;19119;52.474;13.710;2022-07-25T01:32:41;5.18;;;1.77;;
32748;SDS011;19119;52.474;13.710;2022-07-25T01:35:08;4.43;;;2.17;;
32748;SDS011;19119;52.474;13.710;2022-07-25T01:37:34;5.38;;;2.00;;
32748;SDS011;19119;52.474;13.710;2022-07-25T01:40:00;3.03;;;1.90;;
32748;SDS011;19119;52.474;13.710;2022-07-25T01:42:26;2.97;;;2.00;;
32748;SDS011;19119;52.474;13.710;2022-07-25T01:44:52;3.10;;;2.13;;
32748;SDS011;19119;52.474;13.710;2022-07-25T01:47:18;3.75;;;2.47;;
32748;SDS011;19119;52.474;13.710;2022-07-25T01:49:43;3.33;;;2.25;;
32748;SDS011;19119;52.474;13.710;2022-07-25T01:52:09;3.58;;;2.08;;
32748;SDS011;19119;52.474;13.710;2022-07-25T01:54:36;3.63;;;2.17;;
32748;SDS011;19119;52.474;13.710;2022-07-25T01:57:01;4.53;;;2.35;;
32748;SDS011;19119;52.474;13.710;2022-07-25T01:59:28;3.70;;;2.10;;
32748;SDS011;19119;52.474;13.710;2022-07-25T02:01:54;4.40;;;1.75;;
32748;SDS011;19119;52.474;13.710;2022-07-25T02:04:19;3.80;;;2.13;;
32748;SDS011;19119;52.474;13.710;2022-07-25T02:06:45;6.40;;;2.08;;
32748;SDS011;19119;52.474;13.710;2022-07-25T02:09:10;3.13;;;2.10;;
32748;SDS011;19119;52.474;13.710;2022-07-25T02:11:36;4.95;;;2.00;;
32748;SDS011;19119;52.474;13.710;2022-07-25T02:14:02;4.28;;;2.20;;
32748;SDS011;19119;52.474;13.710;2022-07-25T02:16:28;3.03;;;2.17;;
32748;SDS011;19119;52.474;13.710;2022-07-25T02:18:53;3.13;;;2.00;;
32748;SDS011;19119;52.474;13.710;2022-07-25T02:21:19;4.55;;;2.15;;
32748;SDS011;19119;52.474;13.710;2022-07-25T02:23:45;3.58;;;2.35;;
32748;SDS011;19119;52.474;13.710;2022-07-25T02:26:11;2.67;;;2.05;;
32748;SDS011;19119;52.474;13.710;2022-07-25T02:28:37;4.82;;;2.33;;
32748;SDS011;19119;52.474;13.710;2022-07-25T02:31:02;3.63;;;2.65;;
32748;SDS011;19119;52.474;13.710;2022-07-25T02:33:29;4.50;;;2.35;;
32748;SDS011;19119;52.474;13.710;2022-07-25T02:35:54;4.07;;;2.20;;
32748;SDS011;19119;52.474;13.710;2022-07-25T02:38:20;4.15;;;2.05;;
32748;SDS011;19119;52.474;13.710;2022-07-25T02:40:46;3.75;;;2.00;;
32748;SDS011;19119;52.474;13.710;2022-07-25T02:43:12;2.90;;;2.20;;
32748;SDS011;19119;52.474;13.710;2022-07-25T02:45:38;6.07;;;1.98;;
32748;SDS011;19119;52.474;13.710;2022-07-25T02:48:04;2.78;;;2.33;;
32748;SDS011;19119;52.474;13.710;2022-07-25T02:50:29;4.65;;;2.20;;
32748;SDS011;19119;52.474;13.710;2022-07-25T02:52:55;4.97;;;2.47;;
32748;SDS011;19119;52.474;13.710;2022-07-25T02:55:20;3.83;;;2.40;;
32748;SDS011;19119;52.474;13.710;2022-07-25T02:57:46;3.15;;;1.85;;
32748;SDS011;19119;52.474;13.710;2022-07-25T03:00:12;3.55;;;2.13;;
32748;SDS011;19119;52.474;13.710;2022-07-25T03:02:38;2.95;;;2.10;;
32748;SDS011;19119;52.474;13.710;2022-07-25T03:05:05;2.80;;;2.20;;
32748;SDS011;19119;52.474;13.710;2022-07-25T03:07:32;6.93;;;2.03;;
32748;SDS011;19119;52.474;13.710;2022-07-25T03:09:57;4.28;;;2.15;;
32748;SDS011;19119;52.474;13.710;2022-07-25T03:12:23;2.90;;;2.30;;
32748;SDS011;19119;52.474;13.710;2022-07-25T03:14:48;2.50;;;1.95;;
32748;SDS011;19119;52.474;13.710;2022-07-25T03:17:14;2.60;;;1.90;;
32748;SDS011;19119;52.474;13.710;2022-07-25T03:19:40;4.68;;;2.53;;
32748;SDS011;19119;52.474;13.710;2022-07-25T03:22:05;2.85;;;2.05;;
32748;SDS011;19119;52.474;13.710;2022-07-25T03:24:31;3.25;;;2.05;;
32748;SDS011;19119;52.474;13.710;2022-07-25T03:26:56;3.38;;;1.75;;
32748;SDS011;19119;52.474;13.710;2022-07-25T03:29:22;3.15;;;1.80;;
32748;SDS011;19119;52.474;13.710;2022-07-25T03:31:47;4.18;;;1.95;;
32748;SDS011;19119;52.474;13.710;2022-07-25T03:34:13;5.78;;;2.67;;
32748;SDS011;19119;52.474;13.710;2022-07-25T03:36:38;3.35;;;1.90;;
32748;SDS011;19119;52.474;13.710;2022-07-25T03:39:04;5.68;;;2.00;;
32748;SDS011;19119;52.474;13.710;2022-07-25T03:41:29;3.67;;;2.00;;
32748;SDS011;19119;52.474;13.710;2022-07-25T03:43:55;5.32;;;1.70;;
32748;SDS011;19119;52.474;13.710;2022-07-25T03:46:20;6.43;;;1.77;;
32748;SDS011;19119;52.474;13.710;2022-07-25T03:48:46;2.72;;;1.90;;
32748;SDS011;19119;52.474;13.710;2022-07-25T03:51:12;4.00;;;1.75;;
32748;SDS011;19119;52.474;13.710;2022-07-25T03:53:37;4.95;;;2.20;;
32748;SDS011;19119;52.474;13.710;2022-07-25T03:56:23;4.40;;;1.85;;
32748;SDS011;19119;52.474;13.710;2022-07-25T03:58:49;3.63;;;1.90;;
32748;SDS011;19119;52.474;13.710;2022-07-25T04:01:14;3.85;;;1.90;;
32748;SDS011;19119;52.474;13.710;2022-07-25T04:03:39;2.53;;;1.55;;
32748;SDS011;19119;52.474;13.710;2022-07-25T04:06:05;2.90;;;1.83;;
32748;SDS011;19119;52.474;13.710;2022-07-25T04:08:31;2.72;;;2.00;;
32748;SDS011;19119;52.474;13.710;2022-07-25T04:10:56;2.85;;;2.00;;
32748;SDS011;19119;52.474;13.710;2022-07-25T04:13:21;5.85;;;1.98;;
32748;SDS011;19119;52.474;13.710;2022-07-25T04:15:47;2.78;;;1.70;;
32748;SDS011;19119;52.474;13.710;2022-07-25T04:18:12;4.03;;;1.95;;
32748;SDS011;19119;52.474;13.710;2022-07-25T04:20:38;4.47;;;2.20;;
32748;SDS011;19119;52.474;13.710;2022-07-25T04:23:03;5.38;;;2.30;;
32748;SDS011;19119;52.474;13.710;2022-07-25T04:25:29;2.63;;;1.85;;
32748;SDS011;19119;52.474;13.710;2022-07-25T04:27:54;3.38;;;1.73;;
32748;SDS011;19119;52.474;13.710;2022-07-25T04:30:20;2.97;;;1.88;;
32748;SDS011;19119;52.474;13.710;2022-07-25T04:32:46;4.05;;;1.98;;
32748;SDS011;19119;52.474;13.710;2022-07-25T04:35:11;3.25;;;1.90;;
32748;SDS011;19119;52.474;13.710;2022-07-25T04:37:37;2.90;;;1.98;;
32748;SDS011;19119;52.474;13.710;2022-07-25T04:40:03;5.10;;;2.00;;
32748;SDS011;19119;52.474;13.710;2022-07-25T04:42:29;3.13;;;2.30;;
32748;SDS011;19119;52.474;13.710;2022-07-25T04:44:54;3.53;;;2.00;;
32748;SDS011;19119;52.474;13.710;2022-07-25T04:47:20;2.45;;;1.77;;
32748;SDS011;19119;52.474;13.710;2022-07-25T04:49:45;3.22;;;2.47;;
32748;SDS011;19119;52.474;13.710;2022-07-25T04:52:11;3.30;;;1.98;;
32748;SDS011;19119;52.474;13.710;2022-07-25T04:54:36;4.93;;;2.28;;
32748;SDS011;19119;52.474;13.710;2022-07-25T04:57:02;3.05;;;1.83;;
32748;SDS011;19119;52.474;13.710;2022-07-25T04:59:29;5.43;;;2.00;;
32748;SDS011;19119;52.474;13.710;2022-07-25T05:01:55;2.17;;;1.60;;
32748;SDS011;19119;52.474;13.710;2022-07-25T05:04:21;2.45;;;1.75;;
32748;SDS011;19119;52.474;13.710;2022-07-25T05:06:46;2.22;;;1.63;;
32748;SDS011;19119;52.474;13.710;2022-07-25T05:09:12;2.38;;;1.70;;
32748;SDS011;19119;52.474;13.710;2022-07-25T05:11:37;3.58;;;1.77;;
32748;SDS011;19119;52.474;13.710;2022-07-25T05:14:03;3.10;;;1.80;;
32748;SDS011;19119;52.474;13.710;2022-07-25T05:16:28;2.67;;;2.00;;
32748;SDS011;19119;52.474;13.710;2022-07-25T05:18:54;5.05;;;2.28;;
32748;SDS011;19119;52.474;13.710;2022-07-25T05:21:19;2.63;;;2.00;;
32748;SDS011;19119;52.474;13.710;2022-07-25T05:23:45;3.42;;;1.52;;
32748;SDS011;19119;52.474;13.710;2022-07-25T05:26:10;5.13;;;1.95;;
32748;SDS011;19119;52.474;13.710;2022-07-25T05:28:36;2.42;;;1.70;;
32748;SDS011;19119;52.474;13.710;2022-07-25T05:31:01;3.45;;;2.10;;
32748;SDS011;19119;52.474;13.710;2022-07-25T05:33:27;3.60;;;2.10;;
32748;SDS011;19119;52.474;13.710;2022-07-25T05:35:53;3.55;;;1.92;;
32748;SDS011;19119;52.474;13.710;2022-07-25T05:38:18;3.72;;;2.22;;
32748;SDS011;19119;52.474;13.710;2022-07-25T05:40:44;2.30;;;1.77;;
32748;SDS011;19119;52.474;13.710;2022-07-25T05:43:10;3.22;;;1.80;;
32748;SDS011;19119;52.474;13.710;2022-07-25T05:45:35;3.40;;;2.10;;
32748;SDS011;19119;52.474;13.710;2022-07-25T05:48:01;3.70;;;2.35;;
32748;SDS011;19119;52.474;13.710;2022-07-25T05:50:26;6.22;;;2.92;;
32748;SDS011;19119;52.474;13.710;2022-07-25T05:52:52;3.70;;;2.17;;
32748;SDS011;19119;52.474;13.710;2022-07-25T05:55:17;4.75;;;2.22;;
32748;SDS011;19119;52.474;13.710;2022-07-25T05:57:43;5.88;;;2.30;;
32748;SDS011;19119;52.474;13.710;2022-07-25T06:00:09;5.68;;;2.03;;
32748;SDS011;19119;52.474;13.710;2022-07-25T06:02:35;2.53;;;2.03;;
32748;SDS011;19119;52.474;13.710;2022-07-25T06:05:00;3.20;;;2.42;;
32748;SDS011;19119;52.474;13.710;2022-07-25T06:07:25;3.35;;;2.00;;
32748;SDS011;19119;52.474;13.710;2022-07-25T06:09:51;3.90;;;2.55;;
32748;SDS011;19119;52.474;13.710;2022-07-25T06:12:16;5.07;;;2.28;;
32748;SDS011;19119;52.474;13.710;2022-07-25T06:14:42;4.32;;;2.10;;
32748;SDS011;19119;52.474;13.710;2022-07-25T06:17:07;3.85;;;2.25;;
32748;SDS011;19119;52.474;13.710;2022-07-25T06:19:33;4.43;;;2.25;;
32748;SDS011;19119;52.474;13.710;2022-07-25T06:21:58;3.78;;;2.25;;
32748;SDS011;19119;52.474;13.710;2022-07-25T06:24:24;4.90;;;2.72;;
32748;SDS011;19119;52.474;13.710;2022-07-25T06:26:49;2.83;;;2.30;;
32748;SDS011;19119;52.474;13.710;2022-07-25T06:29:15;4.50;;;2.75;;
32748;SDS011;19119;52.474;13.710;2022-07-25T06:31:40;6.35;;;2.50;;
32748;SDS011;19119;52.474;13.710;2022-07-25T06:34:06;4.63;;;2.22;;
32748;SDS011;19119;52.474;13.710;2022-07-25T06:36:33;4.22;;;2.40;;
32748;SDS011;19119;52.474;13.710;2022-07-25T06:38:59;3.00;;;2.33;;
32748;SDS011;19119;52.474;13.710;2022-07-25T06:41:24;4.15;;;2.33;;
32748;SDS011;19119;52.474;13.710;2022-07-25T06:43:50;4.15;;;2.75;;
32748;SDS011;19119;52.474;13.710;2022-07-25T06:46:15;6.72;;;2.50;;
32748;SDS011;19119;52.474;13.710;2022-07-25T06:48:41;2.97;;;2.17;;
32748;SDS011;19119;52.474;13.710;2022-07-25T06:51:07;4.97;;;2.40;;
32748;SDS011;19119;52.474;13.710;2022-07-25T06:53:32;4.68;;;3.03;;
32748;SDS011;19119;52.474;13.710;2022-07-25T06:55:58;5.38;;;3.08;;
32748;SDS011;19119;52.474;13.710;2022-07-25T06:58:23;3.67;;;2.65;;
32748;SDS011;19119;52.474;13.710;2022-07-25T07:00:49;3.67;;;2.70;;
32748;SDS011;19119;52.474;13.710;2022-07-25T07:03:15;3.90;;;2.90;;
32748;SDS011;19119;52.474;13.710;2022-07-25T07:05:40;5.43;;;3.13;;
32748;SDS011;19119;52.474;13.710;2022-07-25T07:08:06;5.63;;;2.80;;
32748;SDS011;19119;52.474;13.710;2022-07-25T07:10:32;6.25;;;2.75;;
32748;SDS011;19119;52.474;13.710;2022-07-25T07:13:05;4.88;;;2.97;;
32748;SDS011;19119;52.474;13.710;2022-07-25T07:15:32;4.75;;;2.67;;
32748;SDS011;19119;52.474;13.710;2022-07-25T07:17:58;7.20;;;3.20;;
32748;SDS011;19119;52.474;13.710;2022-07-25T07:20:23;4.63;;;2.90;;
32748;SDS011;19119;52.474;13.710;2022-07-25T07:22:49;4.78;;;2.55;;
32748;SDS011;19119;52.474;13.710;2022-07-25T07:25:15;5.90;;;2.78;;
32748;SDS011;19119;52.474;13.710;2022-07-25T07:27:42;8.02;;;3.17;;
32748;SDS011;19119;52.474;13.710;2022-07-25T07:30:09;4.63;;;2.90;;
32748;SDS011;19119;52.474;13.710;2022-07-25T07:32:35;5.18;;;2.85;;
32748;SDS011;19119;52.474;13.710;2022-07-25T07:35:01;5.65;;;3.20;;
32748;SDS011;19119;52.474;13.710;2022-07-25T07:37:27;4.55;;;2.97;;
32748;SDS011;19119;52.474;13.710;2022-07-25T07:39:53;3.42;;;3.05;;
32748;SDS011;19119;52.474;13.710;2022-07-25T07:42:18;4.32;;;2.80;;
32748;SDS011;19119;52.474;13.710;2022-07-25T07:44:44;6.22;;;2.92;;
32748;SDS011;19119;52.474;13.710;2022-07-25T07:47:09;4.35;;;3.40;;
32748;SDS011;19119;52.474;13.710;2022-07-25T07:49:35;5.28;;;3.15;;
32748;SDS011;19119;52.474;13.710;2022-07-25T07:52:00;5.20;;;3.88;;
32748;SDS011;19119;52.474;13.710;2022-07-25T07:54:26;3.42;;;3.05;;
32748;SDS011;19119;52.474;13.710;2022-07-25T07:57:10;5.45;;;3.15;;
32748;SDS011;19119;52.474;13.710;2022-07-25T07:59:35;6.90;;;3.35;;
32748;SDS011;19119;52.474;13.710;2022-07-25T08:02:01;6.95;;;3.13;;
32748;SDS011;19119;52.474;13.710;2022-07-25T08:04:26;4.05;;;2.97;;
32748;SDS011;19119;52.474;13.710;2022-07-25T08:06:52;5.13;;;2.92;;
32748;SDS011;19119;52.474;13.710;2022-07-25T08:09:18;7.10;;;3.30;;
32748;SDS011;19119;52.474;13.710;2022-07-25T08:11:43;5.93;;;3.17;;
32748;SDS011;19119;52.474;13.710;2022-07-25T08:14:09;8.23;;;3.45;;
32748;SDS011;19119;52.474;13.710;2022-07-25T08:16:34;4.10;;;3.00;;
32748;SDS011;19119;52.474;13.710;2022-07-25T08:19:00;4.32;;;3.50;;
32748;SDS011;19119;52.474;13.710;2022-07-25T08:21:25;4.45;;;3.42;;
32748;SDS011;19119;52.474;13.710;2022-07-25T08:23:51;4.72;;;3.63;;
32748;SDS011;19119;52.474;13.710;2022-07-25T08:26:16;6.03;;;3.70;;
32748;SDS011;19119;52.474;13.710;2022-07-25T08:28:42;4.95;;;3.58;;
32748;SDS011;19119;52.474;13.710;2022-07-25T08:31:07;4.72;;;3.67;;
32748;SDS011;19119;52.474;13.710;2022-07-25T08:33:34;7.60;;;3.70;;
32748;SDS011;19119;52.474;13.710;2022-07-25T08:36:00;5.75;;;3.47;;
32748;SDS011;19119;52.474;13.710;2022-07-25T08:38:26;7.90;;;3.70;;
32748;SDS011;19119;52.474;13.710;2022-07-25T08:40:52;4.32;;;3.50;;
32748;SDS011;19119;52.474;13.710;2022-07-25T08:43:19;4.22;;;3.83;;
32748;SDS011;19119;52.474;13.710;2022-07-25T08:45:47;11.23;;;4.07;;
32748;SDS011;19119;52.474;13.710;2022-07-25T08:48:19;6.53;;;3.90;;
32748;SDS011;19119;52.474;13.710;2022-07-25T08:50:46;5.72;;;3.90;;
32748;SDS011;19119;52.474;13.710;2022-07-25T08:53:13;8.00;;;3.80;;
32748;SDS011;19119;52.474;13.710;2022-07-25T08:55:40;6.72;;;3.90;;
32748;SDS011;19119;52.474;13.710;2022-07-25T08:58:07;8.88;;;4.35;;
32748;SDS011;19119;52.474;13.710;2022-07-25T09:00:35;4.70;;;4.22;;
32748;SDS011;19119;52.474;13.710;2022-07-25T09:03:01;4.85;;;4.10;;
32748;SDS011;19119;52.474;13.710;2022-07-25T09:05:30;5.07;;;3.92;;
32748;SDS011;19119;52.474;13.710;2022-07-25T09:07:57;5.80;;;3.85;;
32748;SDS011;19119;52.474;13.710;2022-07-25T09:10:30;5.50;;;4.07;;
32748;SDS011;19119;52.474;13.710;2022-07-25T09:12:57;5.53;;;4.40;;
32748;SDS011;19119;52.474;13.710;2022-07-25T09:15:26;5.70;;;4.65;;
32748;SDS011;19119;52.474;13.710;2022-07-25T09:17:56;8.10;;;4.30;;
32748;SDS011;19119;52.474;13.710;2022-07-25T09:20:23;8.48;;;4.45;;
32748;SDS011;19119;52.474;13.710;2022-07-25T09:23:00;8.48;;;4.47;;
32748;SDS011;19119;52.474;13.710;2022-07-25T09:25:26;6.13;;;4.35;;
32748;SDS011;19119;52.474;13.710;2022-07-25T09:27:55;9.07;;;4.53;;
32748;SDS011;19119;52.474;13.710;2022-07-25T09:30:36;9.73;;;5.18;;
32748;SDS011;19119;52.474;13.710;2022-07-25T09:33:03;5.78;;;5.05;;
32748;SDS011;19119;52.474;13.710;2022-07-25T09:35:29;10.75;;;5.00;;
32748;SDS011;19119;52.474;13.710;2022-07-25T09:38:05;10.20;;;5.10;;
32748;SDS011;19119;52.474;13.710;2022-07-25T09:40:38;6.35;;;4.88;;
32748;SDS011;19119;52.474;13.710;2022-07-25T09:43:05;6.00;;;4.13;;
32748;SDS011;19119;52.474;13.710;2022-07-25T09:45:30;10.30;;;5.03;;
32748;SDS011;19119;52.474;13.710;2022-07-25T09:47:57;6.18;;;4.20;;
32748;SDS011;19119;52.474;13.710;2022-07-25T09:50:26;6.60;;;4.80;;
32748;SDS011;19119;52.474;13.710;2022-07-25T09:52:54;7.10;;;4.65;;
32748;SDS011;19119;52.474;13.710;2022-07-25T09:55:21;8.40;;;4.85;;
32748;SDS011;19119;52.474;13.710;2022-07-25T09:57:47;6.63;;;4.97;;
32748;SDS011;19119;52.474;13.710;2022-07-25T10:00:15;6.32;;;4.65;;
32748;SDS011;19119;52.474;13.710;2022-07-25T10:05:29;10.43;;;5.88;;
32748;SDS011;19119;52.474;13.710;2022-07-25T10:08:04;14.13;;;5.63;;
32748;SDS011;19119;52.474;13.710;2022-07-25T10:10:35;6.93;;;5.47;;
32748;SDS011;19119;52.474;13.710;2022-07-25T10:13:06;5.95;;;5.10;;
32748;SDS011;19119;52.474;13.710;2022-07-25T10:15:43;6.18;;;5.57;;
32748;SDS011;19119;52.474;13.710;2022-07-25T10:18:14;7.45;;;5.10;;
32748;SDS011;19119;52.474;13.710;2022-07-25T10:20:42;11.57;;;6.25;;
32748;SDS011;19119;52.474;13.710;2022-07-25T10:23:15;6.22;;;5.57;;
32748;SDS011;19119;52.474;13.710;2022-07-25T10:25:42;6.45;;;5.80;;
32748;SDS011;19119;52.474;13.710;2022-07-25T10:28:08;9.88;;;5.82;;
32748;SDS011;19119;52.474;13.710;2022-07-25T10:30:39;6.10;;;5.50;;
32748;SDS011;19119;52.474;13.710;2022-07-25T10:33:17;8.40;;;6.00;;
32748;SDS011;19119;52.474;13.710;2022-07-25T10:35:43;7.72;;;5.97;;
32748;SDS011;19119;52.474;13.710;2022-07-25T10:38:09;7.13;;;5.97;;
32748;SDS011;19119;52.474;13.710;2022-07-25T10:48:34;7.43;;;6.18;;
32748;SDS011;19119;52.474;13.710;2022-07-25T10:51:06;7.68;;;6.03;;
32748;SDS011;19119;52.474;13.710;2022-07-25T10:58:51;8.93;;;5.75;;
32748;SDS011;19119;52.474;13.710;2022-07-25T11:01:25;7.57;;;5.95;;
32748;SDS011;19119;52.474;13.710;2022-07-25T11:03:53;8.02;;;5.55;;
32748;SDS011;19119;52.474;13.710;2022-07-25T11:06:31;6.13;;;5.53;;
32748;SDS011;19119;52.474;13.710;2022-07-25T11:08:58;8.57;;;5.85;;
32748;SDS011;19119;52.474;13.710;2022-07-25T11:11:31;7.72;;;5.57;;
32748;SDS011;19119;52.474;13.710;2022-07-25T11:14:01;11.00;;;5.68;;
32748;SDS011;19119;52.474;13.710;2022-07-25T11:16:27;6.15;;;5.55;;
32748;SDS011;19119;52.474;13.710;2022-07-25T11:18:54;9.38;;;6.60;;
32748;SDS011;19119;52.474;13.710;2022-07-25T11:21:19;6.80;;;5.93;;
32748;SDS011;19119;52.474;13.710;2022-07-25T11:23:51;12.07;;;6.55;;
32748;SDS011;19119;52.474;13.710;2022-07-25T11:26:16;10.60;;;6.43;;
32748;SDS011;19119;52.474;13.710;2022-07-25T11:28:47;9.82;;;6.25;;
32748;SDS011;19119;52.474;13.710;2022-07-25T11:31:14;6.53;;;5.85;;
32748;SDS011;19119;52.474;13.710;2022-07-25T11:33:42;7.05;;;5.65;;
32748;SDS011;19119;52.474;13.710;2022-07-25T11:36:10;7.32;;;6.20;;
32748;SDS011;19119;52.474;13.710;2022-07-25T11:38:37;7.13;;;6.18;;
32748;SDS011;19119;52.474;13.710;2022-07-25T11:41:03;7.22;;;5.88;;
32748;SDS011;19119;52.474;13.710;2022-07-25T11:43:29;8.15;;;5.88;;
32748;SDS011;19119;52.474;13.710;2022-07-25T11:45:59;10.55;;;6.20;;
32748;SDS011;19119;52.474;13.710;2022-07-25T11:48:30;9.60;;;6.35;;
32748;SDS011;19119;52.474;13.710;2022-07-25T11:51:06;8.98;;;6.55;;
32748;SDS011;19119;52.474;13.710;2022-07-25T11:53:41;7.30;;;5.93;;
32748;SDS011;19119;52.474;13.710;2022-07-25T11:56:10;6.93;;;6.22;;
32748;SDS011;19119;52.474;13.710;2022-07-25T11:58:40;8.52;;;6.22;;
32748;SDS011;19119;52.474;13.710;2022-07-25T12:01:13;12.95;;;6.50;;
32748;SDS011;19119;52.474;13.710;2022-07-25T12:03:39;7.15;;;6.13;;
32748;SDS011;19119;52.474;13.710;2022-07-25T12:06:06;8.73;;;6.68;;
32748;SDS011;19119;52.474;13.710;2022-07-25T12:08:36;6.43;;;5.82;;
32748;SDS011;19119;52.474;13.710;2022-07-25T12:11:03;10.40;;;6.13;;
32748;SDS011;19119;52.474;13.710;2022-07-25T12:13:29;7.28;;;6.20;;
32748;SDS011;19119;52.474;13.710;2022-07-25T12:15:58;9.25;;;6.45;;
32748;SDS011;19119;52.474;13.710;2022-07-25T12:18:24;8.55;;;6.40;;
32748;SDS011;19119;52.474;13.710;2022-07-25T12:20:50;6.90;;;6.25;;
32748;SDS011;19119;52.474;13.710;2022-07-25T12:23:16;8.38;;;6.00;;
32748;SDS011;19119;52.474;13.710;2022-07-25T12:25:43;8.77;;;6.05;;
32748;SDS011;19119;52.474;13.710;2022-07-25T12:28:10;8.43;;;6.15;;
32748;SDS011;19119;52.474;13.710;2022-07-25T12:30:36;7.38;;;5.28;;
32748;SDS011;19119;52.474;13.710;2022-07-25T12:33:03;6.32;;;5.70;;
32748;SDS011;19119;52.474;13.710;2022-07-25T12:35:29;6.40;;;5.40;;
32748;SDS011;19119;52.474;13.710;2022-07-25T12:37:54;7.57;;;6.10;;
32748;SDS011;19119;52.474;13.710;2022-07-25T12:40:20;10.77;;;6.15;;
32748;SDS011;19119;52.474;13.710;2022-07-25T12:42:45;7.95;;;5.75;;
32748;SDS011;19119;52.474;13.710;2022-07-25T12:45:12;7.88;;;5.63;;
32748;SDS011;19119;52.474;13.710;2022-07-25T12:47:39;8.57;;;6.00;;
32748;SDS011;19119;52.474;13.710;2022-07-25T12:50:06;6.80;;;6.13;;
32748;SDS011;19119;52.474;13.710;2022-07-25T12:52:32;8.70;;;5.65;;
32748;SDS011;19119;52.474;13.710;2022-07-25T12:54:58;6.55;;;5.90;;
32748;SDS011;19119;52.474;13.710;2022-07-25T12:57:23;6.88;;;6.18;;
32748;SDS011;19119;52.474;13.710;2022-07-25T12:59:49;6.35;;;5.75;;
32748;SDS011;19119;52.474;13.710;2022-07-25T13:02:15;10.20;;;6.65;;
32748;SDS011;19119;52.474;13.710;2022-07-25T13:04:40;7.55;;;6.00;;
32748;SDS011;19119;52.474;13.710;2022-07-25T13:07:06;6.78;;;5.88;;
32748;SDS011;19119;52.474;13.710;2022-07-25T13:09:31;8.02;;;6.03;;
32748;SDS011;19119;52.474;13.710;2022-07-25T13:11:57;8.40;;;6.05;;
32748;SDS011;19119;52.474;13.710;2022-07-25T13:14:23;7.47;;;5.85;;
32748;SDS011;19119;52.474;13.710;2022-07-25T13:16:49;6.47;;;5.68;;
32748;SDS011;19119;52.474;13.710;2022-07-25T13:19:15;10.10;;;6.25;;
32748;SDS011;19119;52.474;13.710;2022-07-25T13:21:41;7.00;;;6.30;;
32748;SDS011;19119;52.474;13.710;2022-07-25T13:24:07;8.75;;;5.90;;
32748;SDS011;19119;52.474;13.710;2022-07-25T13:26:33;6.63;;;6.03;;
32748;SDS011;19119;52.474;13.710;2022-07-25T13:29:00;8.38;;;5.75;;
32748;SDS011;19119;52.474;13.710;2022-07-25T13:31:26;9.90;;;5.93;;
32748;SDS011;19119;52.474;13.710;2022-07-25T13:33:52;6.20;;;5.28;;
32748;SDS011;19119;52.474;13.710;2022-07-25T13:36:18;6.43;;;5.78;;
32748;SDS011;19119;52.474;13.710;2022-07-25T13:38:43;10.55;;;5.80;;
32748;SDS011;19119;52.474;13.710;2022-07-25T13:41:10;7.57;;;6.13;;
32748;SDS011;19119;52.474;13.710;2022-07-25T13:43:37;7.20;;;5.82;;
32748;SDS011;19119;52.474;13.710;2022-07-25T13:46:02;8.15;;;5.75;;
32748;SDS011;19119;52.474;13.710;2022-07-25T13:48:28;7.20;;;5.93;;
32748;SDS011;19119;52.474;13.710;2022-07-25T13:50:54;6.28;;;5.68;;
32748;SDS011;19119;52.474;13.710;2022-07-25T13:53:20;7.70;;;6.85;;
32748;SDS011;19119;52.474;13.710;2022-07-25T13:55:46;8.70;;;6.10;;
32748;SDS011;19119;52.474;13.710;2022-07-25T13:58:12;7.88;;;6.00;;
32748;SDS011;19119;52.474;13.710;2022-07-25T14:00:38;7.38;;;5.47;;
32748;SDS011;19119;52.474;13.710;2022-07-25T14:03:04;7.63;;;6.15;;
32748;SDS011;19119;52.474;13.710;2022-07-25T14:05:30;7.05;;;5.65;;
32748;SDS011;19119;52.474;13.710;2022-07-25T14:07:56;7.88;;;5.90;;
32748;SDS011;19119;52.474;13.710;2022-07-25T14:10:23;8.60;;;6.00;;
32748;SDS011;19119;52.474;13.710;2022-07-25T14:12:48;7.28;;;5.78;;
32748;SDS011;19119;52.474;13.710;2022-07-25T14:15:14;6.68;;;5.95;;
32748;SDS011;19119;52.474;13.710;2022-07-25T14:17:39;7.50;;;5.53;;
32748;SDS011;19119;52.474;13.710;2022-07-25T14:20:05;7.85;;;6.03;;
32748;SDS011;19119;52.474;13.710;2022-07-25T14:22:31;7.45;;;5.43;;
32748;SDS011;19119;52.474;13.710;2022-07-25T14:24:57;9.10;;;6.00;;
32748;SDS011;19119;52.474;13.710;2022-07-25T14:27:23;7.10;;;5.82;;
32748;SDS011;19119;52.474;13.710;2022-07-25T14:29:48;6.50;;;5.57;;
32748;SDS011;19119;52.474;13.710;2022-07-25T14:32:14;6.05;;;5.22;;
32748;SDS011;19119;52.474;13.710;2022-07-25T14:34:39;6.35;;;5.82;;
32748;SDS011;19119;52.474;13.710;2022-07-25T14:37:05;9.07;;;6.15;;
32748;SDS011;19119;52.474;13.710;2022-07-25T14:39:31;9.38;;;5.78;;
32748;SDS011;19119;52.474;13.710;2022-07-25T14:41:57;6.15;;;5.30;;
32748;SDS011;19119;52.474;13.710;2022-07-25T14:44:26;6.32;;;5.30;;